sensor_id;sensor_type;location;lat;lon;timestamp;P1;durP1;ratioP1;P2;durP2;ratioP2
485;SDS011;229;48.734;9.340;2023-03-20T00:02:16;9.27;;;7.30;;
485;SDS011;229;48.734;9.340;2023-03-20T00:04:44;12.07;;;7.70;;
485;SDS011;229;48.734;9.340;2023-03-20T00:07:11;9.45;;;8.10;;
485;SDS011;229;48.734;9.340;2023-03-20T00:09:40;11.38;;;9.40;;
485;SDS011;229;48.734;9.340;2023-03-20T00:12:08;11.40;;;10.05;;
485;SDS011;229;48.734;9.340;2023-03-20T00:14:36;13.23;;;10.18;;
485;SDS011;229;48.734;9.340;2023-03-20T00:17:04;12.32;;;9.30;;
485;SDS011;229;48.734;9.340;2023-03-20T00:19:34;11.35;;;10.52;;
485;SDS011;229;48.734;9.340;2023-03-20T00:22:02;12.85;;;10.15;;
485;SDS011;229;48.734;9.340;2023-03-20T00:24:29;12.32;;;10.60;;
485;SDS011;229;48.734;9.340;2023-03-20T00:26:58;15.40;;;11.00;;
485;SDS011;229;48.734;9.340;2023-03-20T00:29:27;14.07;;;10.75;;
485;SDS011;229;48.734;9.340;2023-03-20T00:31:55;11.60;;;9.18;;
485;SDS011;229;48.734;9.340;2023-03-20T00:34:24;12.80;;;9.85;;
485;SDS011;229;48.734;9.340;2023-03-20T00:36:53;7.90;;;7.35;;
485;SDS011;229;48.734;9.340;2023-03-20T00:39:21;10.05;;;6.30;;
485;SDS011;229;48.734;9.340;2023-03-20T00:41:49;8.35;;;7.22;;
485;SDS011;229;48.734;9.340;2023-03-20T00:44:19;9.88;;;9.23;;
485;SDS011;229;48.734;9.340;2023-03-20T00:46:48;11.27;;;9.00;;
485;SDS011;229;48.734;9.340;2023-03-20T00:49:16;7.70;;;6.38;;
485;SDS011;229;48.734;9.340;2023-03-20T00:51:44;8.95;;;6.90;;
485;SDS011;229;48.734;9.340;2023-03-20T00:54:11;9.65;;;7.10;;
485;SDS011;229;48.734;9.340;2023-03-20T00:56:39;11.05;;;6.53;;
485;SDS011;229;48.734;9.340;2023-03-20T00:59:08;6.70;;;5.85;;
485;SDS011;229;48.734;9.340;2023-03-20T01:01:41;10.15;;;6.97;;
485;SDS011;229;48.734;9.340;2023-03-20T01:04:08;8.13;;;6.40;;
485;SDS011;229;48.734;9.340;2023-03-20T01:06:37;6.35;;;5.97;;
485;SDS011;229;48.734;9.340;2023-03-20T01:09:04;8.05;;;5.78;;
485;SDS011;229;48.734;9.340;2023-03-20T01:11:31;7.82;;;5.65;;
485;SDS011;229;48.734;9.340;2023-03-20T01:13:59;7.28;;;6.88;;
485;SDS011;229;48.734;9.340;2023-03-20T01:16:26;8.45;;;6.32;;
485;SDS011;229;48.734;9.340;2023-03-20T01:18:57;8.52;;;6.00;;
485;SDS011;229;48.734;9.340;2023-03-20T01:21:24;7.63;;;6.30;;
485;SDS011;229;48.734;9.340;2023-03-20T01:23:52;8.45;;;5.60;;
485;SDS011;229;48.734;9.340;2023-03-20T01:26:20;9.05;;;7.13;;
485;SDS011;229;48.734;9.340;2023-03-20T01:28:48;10.25;;;7.78;;
485;SDS011;229;48.734;9.340;2023-03-20T01:31:16;11.20;;;6.72;;
485;SDS011;229;48.734;9.340;2023-03-20T01:33:43;9.65;;;6.18;;
485;SDS011;229;48.734;9.340;2023-03-20T01:36:12;6.85;;;5.80;;
485;SDS011;229;48.734;9.340;2023-03-20T01:38:40;7.35;;;6.78;;
485;SDS011;229;48.734;9.340;2023-03-20T01:41:09;7.95;;;6.88;;
485;SDS011;229;48.734;9.340;2023-03-20T01:43:38;8.30;;;7.22;;
485;SDS011;229;48.734;9.340;2023-03-20T01:46:12;9.38;;;6.90;;
485;SDS011;229;48.734;9.340;2023-03-20T01:51:25;10.13;;;7.22;;
485;SDS011;229;48.734;9.340;2023-03-20T01:53:53;8.82;;;7.95;;
485;SDS011;229;48.734;9.340;2023-03-20T01:56:22;7.97;;;6.28;;
485;SDS011;229;48.734;9.340;2023-03-20T01:58:50;9.18;;;6.65;;
485;SDS011;229;48.734;9.340;2023-03-20T02:01:18;8.57;;;6.70;;
485;SDS011;229;48.734;9.340;2023-03-20T02:03:47;9.27;;;7.25;;
485;SDS011;229;48.734;9.340;2023-03-20T02:06:16;7.47;;;6.40;;
485;SDS011;229;48.734;9.340;2023-03-20T02:08:47;10.93;;;6.90;;
485;SDS011;229;48.734;9.340;2023-03-20T02:11:14;8.18;;;6.90;;
485;SDS011;229;48.734;9.340;2023-03-20T02:13:42;10.32;;;7.40;;
485;SDS011;229;48.734;9.340;2023-03-20T02:16:11;7.97;;;6.97;;
485;SDS011;229;48.734;9.340;2023-03-20T02:18:39;8.02;;;5.85;;
485;SDS011;229;48.734;9.340;2023-03-20T02:21:24;7.18;;;6.63;;
485;SDS011;229;48.734;9.340;2023-03-20T02:26:47;7.85;;;6.15;;
485;SDS011;229;48.734;9.340;2023-03-20T02:32:19;5.55;;;4.82;;
485;SDS011;229;48.734;9.340;2023-03-20T02:34:53;6.22;;;5.40;;
485;SDS011;229;48.734;9.340;2023-03-20T02:37:29;6.38;;;5.50;;
485;SDS011;229;48.734;9.340;2023-03-20T02:40:01;8.77;;;5.13;;
485;SDS011;229;48.734;9.340;2023-03-20T02:42:33;6.38;;;4.82;;
485;SDS011;229;48.734;9.340;2023-03-20T02:45:05;7.68;;;5.65;;
485;SDS011;229;48.734;9.340;2023-03-20T02:47:36;6.25;;;5.60;;
485;SDS011;229;48.734;9.340;2023-03-20T02:50:07;4.72;;;4.43;;
485;SDS011;229;48.734;9.340;2023-03-20T02:52:38;5.75;;;4.50;;
485;SDS011;229;48.734;9.340;2023-03-20T02:55:13;7.68;;;4.85;;
485;SDS011;229;48.734;9.340;2023-03-20T02:57:45;4.93;;;4.20;;
485;SDS011;229;48.734;9.340;2023-03-20T03:00:14;5.13;;;4.07;;
485;SDS011;229;48.734;9.340;2023-03-20T03:02:46;5.75;;;4.20;;
485;SDS011;229;48.734;9.340;2023-03-20T03:05:15;4.85;;;4.00;;
485;SDS011;229;48.734;9.340;2023-03-20T03:07:46;5.75;;;3.67;;
485;SDS011;229;48.734;9.340;2023-03-20T03:10:16;10.57;;;4.45;;
485;SDS011;229;48.734;9.340;2023-03-20T03:12:45;5.00;;;3.70;;
485;SDS011;229;48.734;9.340;2023-03-20T03:15:15;4.40;;;3.50;;
485;SDS011;229;48.734;9.340;2023-03-20T03:17:43;5.00;;;3.80;;
485;SDS011;229;48.734;9.340;2023-03-20T03:20:14;5.32;;;3.20;;
485;SDS011;229;48.734;9.340;2023-03-20T03:22:42;5.05;;;3.28;;
485;SDS011;229;48.734;9.340;2023-03-20T03:25:11;3.88;;;3.70;;
485;SDS011;229;48.734;9.340;2023-03-20T03:27:39;3.80;;;3.42;;
485;SDS011;229;48.734;9.340;2023-03-20T03:30:09;4.55;;;3.10;;
485;SDS011;229;48.734;9.340;2023-03-20T03:32:39;4.15;;;3.50;;
485;SDS011;229;48.734;9.340;2023-03-20T03:35:09;5.40;;;3.90;;
485;SDS011;229;48.734;9.340;2023-03-20T03:37:41;4.95;;;3.70;;
485;SDS011;229;48.734;9.340;2023-03-20T03:40:14;7.03;;;3.58;;
485;SDS011;229;48.734;9.340;2023-03-20T03:42:43;7.63;;;4.30;;
485;SDS011;229;48.734;9.340;2023-03-20T03:45:15;4.75;;;3.63;;
485;SDS011;229;48.734;9.340;2023-03-20T03:47:45;6.15;;;4.00;;
485;SDS011;229;48.734;9.340;2023-03-20T03:50:15;5.72;;;3.30;;
485;SDS011;229;48.734;9.340;2023-03-20T03:52:44;6.43;;;3.70;;
485;SDS011;229;48.734;9.340;2023-03-20T03:55:15;4.45;;;4.07;;
485;SDS011;229;48.734;9.340;2023-03-20T03:57:46;3.45;;;3.28;;
485;SDS011;229;48.734;9.340;2023-03-20T04:00:16;4.20;;;3.33;;
485;SDS011;229;48.734;9.340;2023-03-20T04:02:46;4.85;;;3.45;;
485;SDS011;229;48.734;9.340;2023-03-20T04:05:13;4.65;;;3.85;;
485;SDS011;229;48.734;9.340;2023-03-20T04:07:43;4.05;;;3.47;;
485;SDS011;229;48.734;9.340;2023-03-20T04:10:10;6.00;;;3.30;;
485;SDS011;229;48.734;9.340;2023-03-20T04:12:39;8.60;;;3.22;;
485;SDS011;229;48.734;9.340;2023-03-20T04:15:07;6.13;;;3.35;;
485;SDS011;229;48.734;9.340;2023-03-20T04:17:35;4.43;;;3.28;;
485;SDS011;229;48.734;9.340;2023-03-20T04:20:02;3.05;;;2.85;;
485;SDS011;229;48.734;9.340;2023-03-20T04:22:29;5.68;;;3.30;;
485;SDS011;229;48.734;9.340;2023-03-20T04:24:59;4.75;;;3.10;;
485;SDS011;229;48.734;9.340;2023-03-20T04:27:26;4.15;;;3.03;;
485;SDS011;229;48.734;9.340;2023-03-20T04:29:55;5.10;;;3.90;;
485;SDS011;229;48.734;9.340;2023-03-20T04:32:22;6.00;;;4.05;;
485;SDS011;229;48.734;9.340;2023-03-20T04:34:49;5.43;;;3.80;;
485;SDS011;229;48.734;9.340;2023-03-20T04:37:17;4.00;;;3.30;;
485;SDS011;229;48.734;9.340;2023-03-20T04:39:44;3.67;;;3.53;;
485;SDS011;229;48.734;9.340;2023-03-20T04:42:11;4.70;;;4.00;;
485;SDS011;229;48.734;9.340;2023-03-20T04:44:39;4.10;;;3.90;;
485;SDS011;229;48.734;9.340;2023-03-20T04:47:07;5.63;;;3.33;;
485;SDS011;229;48.734;9.340;2023-03-20T04:49:34;6.15;;;3.75;;
485;SDS011;229;48.734;9.340;2023-03-20T04:52:02;3.33;;;3.13;;
485;SDS011;229;48.734;9.340;2023-03-20T04:54:29;4.63;;;3.00;;
485;SDS011;229;48.734;9.340;2023-03-20T04:56:56;4.25;;;3.00;;
485;SDS011;229;48.734;9.340;2023-03-20T04:59:23;4.57;;;2.95;;
485;SDS011;229;48.734;9.340;2023-03-20T05:01:51;3.72;;;2.80;;
485;SDS011;229;48.734;9.340;2023-03-20T05:04:19;3.75;;;2.72;;
485;SDS011;229;48.734;9.340;2023-03-20T05:06:46;4.00;;;2.97;;
485;SDS011;229;48.734;9.340;2023-03-20T05:09:14;6.63;;;3.35;;
485;SDS011;229;48.734;9.340;2023-03-20T05:11:41;3.75;;;3.15;;
485;SDS011;229;48.734;9.340;2023-03-20T05:14:08;3.80;;;3.25;;
485;SDS011;229;48.734;9.340;2023-03-20T05:16:36;9.20;;;3.50;;
485;SDS011;229;48.734;9.340;2023-03-20T05:19:03;4.35;;;3.30;;
485;SDS011;229;48.734;9.340;2023-03-20T05:21:31;4.00;;;3.50;;
485;SDS011;229;48.734;9.340;2023-03-20T05:23:59;3.35;;;3.15;;
485;SDS011;229;48.734;9.340;2023-03-20T05:26:26;3.67;;;3.33;;
485;SDS011;229;48.734;9.340;2023-03-20T05:28:53;3.67;;;3.25;;
485;SDS011;229;48.734;9.340;2023-03-20T05:31:21;3.72;;;3.33;;
485;SDS011;229;48.734;9.340;2023-03-20T05:33:48;3.97;;;3.75;;
485;SDS011;229;48.734;9.340;2023-03-20T05:36:18;3.38;;;3.17;;
485;SDS011;229;48.734;9.340;2023-03-20T05:38:46;3.63;;;3.42;;
485;SDS011;229;48.734;9.340;2023-03-20T05:41:14;5.07;;;3.50;;
485;SDS011;229;48.734;9.340;2023-03-20T05:43:41;3.78;;;3.58;;
485;SDS011;229;48.734;9.340;2023-03-20T05:46:08;4.47;;;3.13;;
485;SDS011;229;48.734;9.340;2023-03-20T05:48:35;4.05;;;3.15;;
485;SDS011;229;48.734;9.340;2023-03-20T05:51:03;3.40;;;3.20;;
485;SDS011;229;48.734;9.340;2023-03-20T05:53:34;3.30;;;3.10;;
485;SDS011;229;48.734;9.340;2023-03-20T05:56:03;3.53;;;2.88;;
485;SDS011;229;48.734;9.340;2023-03-20T05:58:30;3.38;;;3.22;;
485;SDS011;229;48.734;9.340;2023-03-20T06:00:59;4.22;;;3.40;;
485;SDS011;229;48.734;9.340;2023-03-20T06:03:26;5.55;;;3.35;;
485;SDS011;229;48.734;9.340;2023-03-20T06:05:53;5.60;;;3.30;;
485;SDS011;229;48.734;9.340;2023-03-20T06:08:20;3.30;;;3.10;;
485;SDS011;229;48.734;9.340;2023-03-20T06:10:48;3.83;;;3.40;;
485;SDS011;229;48.734;9.340;2023-03-20T06:13:17;3.97;;;3.78;;
485;SDS011;229;48.734;9.340;2023-03-20T06:15:45;6.00;;;3.70;;
485;SDS011;229;48.734;9.340;2023-03-20T06:18:12;7.47;;;3.60;;
485;SDS011;229;48.734;9.340;2023-03-20T06:20:39;3.85;;;3.65;;
485;SDS011;229;48.734;9.340;2023-03-20T06:23:06;4.25;;;3.22;;
485;SDS011;229;48.734;9.340;2023-03-20T06:25:33;5.28;;;3.92;;
485;SDS011;229;48.734;9.340;2023-03-20T06:28:00;3.95;;;3.70;;
485;SDS011;229;48.734;9.340;2023-03-20T06:30:29;3.95;;;3.65;;
485;SDS011;229;48.734;9.340;2023-03-20T06:32:56;3.50;;;3.30;;
485;SDS011;229;48.734;9.340;2023-03-20T06:35:24;4.47;;;3.65;;
485;SDS011;229;48.734;9.340;2023-03-20T06:37:55;4.72;;;3.67;;
485;SDS011;229;48.734;9.340;2023-03-20T06:40:22;3.50;;;3.30;;
485;SDS011;229;48.734;9.340;2023-03-20T06:42:49;3.80;;;3.22;;
485;SDS011;229;48.734;9.340;2023-03-20T06:45:16;4.00;;;3.80;;
485;SDS011;229;48.734;9.340;2023-03-20T06:47:45;3.25;;;3.13;;
485;SDS011;229;48.734;9.340;2023-03-20T06:50:12;4.65;;;3.03;;
485;SDS011;229;48.734;9.340;2023-03-20T06:52:39;3.45;;;3.30;;
485;SDS011;229;48.734;9.340;2023-03-20T06:55:07;6.65;;;5.03;;
485;SDS011;229;48.734;9.340;2023-03-20T06:57:34;3.88;;;3.42;;
485;SDS011;229;48.734;9.340;2023-03-20T07:00:02;4.63;;;3.50;;
485;SDS011;229;48.734;9.340;2023-03-20T07:02:29;7.32;;;3.53;;
485;SDS011;229;48.734;9.340;2023-03-20T07:04:58;4.13;;;3.70;;
485;SDS011;229;48.734;9.340;2023-03-20T07:07:25;7.40;;;4.05;;
485;SDS011;229;48.734;9.340;2023-03-20T07:09:53;3.20;;;3.00;;
485;SDS011;229;48.734;9.340;2023-03-20T07:12:20;3.50;;;3.30;;
485;SDS011;229;48.734;9.340;2023-03-20T07:14:52;5.93;;;3.85;;
485;SDS011;229;48.734;9.340;2023-03-20T07:17:20;4.13;;;3.42;;
485;SDS011;229;48.734;9.340;2023-03-20T07:19:47;3.78;;;3.10;;
485;SDS011;229;48.734;9.340;2023-03-20T07:22:18;3.25;;;3.05;;
485;SDS011;229;48.734;9.340;2023-03-20T07:24:46;4.28;;;2.85;;
485;SDS011;229;48.734;9.340;2023-03-20T07:27:14;4.65;;;2.90;;
485;SDS011;229;48.734;9.340;2023-03-20T07:29:42;3.50;;;3.30;;
485;SDS011;229;48.734;9.340;2023-03-20T07:32:09;3.53;;;3.13;;
485;SDS011;229;48.734;9.340;2023-03-20T07:34:37;3.25;;;3.05;;
485;SDS011;229;48.734;9.340;2023-03-20T07:37:04;3.50;;;2.83;;
485;SDS011;229;48.734;9.340;2023-03-20T07:39:32;3.53;;;3.33;;
485;SDS011;229;48.734;9.340;2023-03-20T07:42:00;3.40;;;3.20;;
485;SDS011;229;48.734;9.340;2023-03-20T07:44:27;4.45;;;3.92;;
485;SDS011;229;48.734;9.340;2023-03-20T07:46:54;3.40;;;3.20;;
485;SDS011;229;48.734;9.340;2023-03-20T07:49:21;4.15;;;3.53;;
485;SDS011;229;48.734;9.340;2023-03-20T07:51:49;4.07;;;2.97;;
485;SDS011;229;48.734;9.340;2023-03-20T07:54:18;3.60;;;3.40;;
485;SDS011;229;48.734;9.340;2023-03-20T07:56:47;3.33;;;3.13;;
485;SDS011;229;48.734;9.340;2023-03-20T07:59:14;3.42;;;3.25;;
485;SDS011;229;48.734;9.340;2023-03-20T08:01:42;3.63;;;3.42;;
485;SDS011;229;48.734;9.340;2023-03-20T08:04:09;3.70;;;3.50;;
485;SDS011;229;48.734;9.340;2023-03-20T08:06:36;3.90;;;3.70;;
485;SDS011;229;48.734;9.340;2023-03-20T08:09:04;5.72;;;3.65;;
485;SDS011;229;48.734;9.340;2023-03-20T08:11:32;4.10;;;3.88;;
485;SDS011;229;48.734;9.340;2023-03-20T08:14:00;5.32;;;3.80;;
485;SDS011;229;48.734;9.340;2023-03-20T08:16:27;3.97;;;3.78;;
485;SDS011;229;48.734;9.340;2023-03-20T08:18:54;4.10;;;3.80;;
485;SDS011;229;48.734;9.340;2023-03-20T08:21:25;4.72;;;4.43;;
485;SDS011;229;48.734;9.340;2023-03-20T08:23:52;5.32;;;4.10;;
485;SDS011;229;48.734;9.340;2023-03-20T08:26:20;4.80;;;4.50;;
485;SDS011;229;48.734;9.340;2023-03-20T08:28:47;4.72;;;4.43;;
485;SDS011;229;48.734;9.340;2023-03-20T08:31:16;5.22;;;4.93;;
485;SDS011;229;48.734;9.340;2023-03-20T08:33:43;5.28;;;4.90;;
485;SDS011;229;48.734;9.340;2023-03-20T08:36:11;5.20;;;4.90;;
485;SDS011;229;48.734;9.340;2023-03-20T08:38:39;4.45;;;4.00;;
485;SDS011;229;48.734;9.340;2023-03-20T08:41:06;4.72;;;4.43;;
485;SDS011;229;48.734;9.340;2023-03-20T08:43:34;4.68;;;4.40;;
485;SDS011;229;48.734;9.340;2023-03-20T08:46:01;4.68;;;4.38;;
485;SDS011;229;48.734;9.340;2023-03-20T08:48:30;4.70;;;4.40;;
485;SDS011;229;48.734;9.340;2023-03-20T08:50:57;4.00;;;3.80;;
485;SDS011;229;48.734;9.340;2023-03-20T08:53:24;4.45;;;4.15;;
485;SDS011;229;48.734;9.340;2023-03-20T08:55:52;4.57;;;4.28;;
485;SDS011;229;48.734;9.340;2023-03-20T08:58:20;3.75;;;3.58;;
485;SDS011;229;48.734;9.340;2023-03-20T09:00:47;4.55;;;4.25;;
485;SDS011;229;48.734;9.340;2023-03-20T09:03:15;4.45;;;4.15;;
485;SDS011;229;48.734;9.340;2023-03-20T09:05:44;3.70;;;3.50;;
485;SDS011;229;48.734;9.340;2023-03-20T09:08:12;3.85;;;3.65;;
485;SDS011;229;48.734;9.340;2023-03-20T09:10:39;3.53;;;3.38;;
485;SDS011;229;48.734;9.340;2023-03-20T09:13:06;4.20;;;3.95;;
485;SDS011;229;48.734;9.340;2023-03-20T09:15:34;3.85;;;3.67;;
485;SDS011;229;48.734;9.340;2023-03-20T09:18:02;3.67;;;3.47;;
485;SDS011;229;48.734;9.340;2023-03-20T09:20:29;3.95;;;3.75;;
485;SDS011;229;48.734;9.340;2023-03-20T09:22:58;3.72;;;3.53;;
485;SDS011;229;48.734;9.340;2023-03-20T09:25:25;4.43;;;4.13;;
485;SDS011;229;48.734;9.340;2023-03-20T09:27:52;3.63;;;3.42;;
485;SDS011;229;48.734;9.340;2023-03-20T09:30:20;4.50;;;4.20;;
485;SDS011;229;48.734;9.340;2023-03-20T09:32:47;4.50;;;4.20;;
485;SDS011;229;48.734;9.340;2023-03-20T09:35:15;4.80;;;4.50;;
485;SDS011;229;48.734;9.340;2023-03-20T09:37:43;4.10;;;3.90;;
485;SDS011;229;48.734;9.340;2023-03-20T09:40:16;3.92;;;3.72;;
485;SDS011;229;48.734;9.340;2023-03-20T09:42:46;4.60;;;4.30;;
485;SDS011;229;48.734;9.340;2023-03-20T09:45:18;4.32;;;4.03;;
485;SDS011;229;48.734;9.340;2023-03-20T09:47:48;4.50;;;4.20;;
485;SDS011;229;48.734;9.340;2023-03-20T09:50:20;4.47;;;4.18;;
485;SDS011;229;48.734;9.340;2023-03-20T09:52:52;7.82;;;4.72;;
485;SDS011;229;48.734;9.340;2023-03-20T09:55:22;4.15;;;3.92;;
485;SDS011;229;48.734;9.340;2023-03-20T09:57:53;5.90;;;5.60;;
485;SDS011;229;48.734;9.340;2023-03-20T10:00:23;5.72;;;5.20;;
485;SDS011;229;48.734;9.340;2023-03-20T10:02:52;4.55;;;4.25;;
485;SDS011;229;48.734;9.340;2023-03-20T10:05:20;4.90;;;4.60;;
485;SDS011;229;48.734;9.340;2023-03-20T10:07:49;4.70;;;4.40;;
485;SDS011;229;48.734;9.340;2023-03-20T10:10:17;4.70;;;4.40;;
485;SDS011;229;48.734;9.340;2023-03-20T10:12:47;4.80;;;4.50;;
485;SDS011;229;48.734;9.340;2023-03-20T10:15:17;6.18;;;4.95;;
485;SDS011;229;48.734;9.340;2023-03-20T10:17:49;4.95;;;4.65;;
485;SDS011;229;48.734;9.340;2023-03-20T10:20:24;4.10;;;3.90;;
485;SDS011;229;48.734;9.340;2023-03-20T10:22:57;5.30;;;4.03;;
485;SDS011;229;48.734;9.340;2023-03-20T10:25:26;4.18;;;3.90;;
485;SDS011;229;48.734;9.340;2023-03-20T10:27:56;6.40;;;4.00;;
485;SDS011;229;48.734;9.340;2023-03-20T10:33:11;4.50;;;4.20;;
485;SDS011;229;48.734;9.340;2023-03-20T10:35:42;4.30;;;4.00;;
485;SDS011;229;48.734;9.340;2023-03-20T10:38:13;4.40;;;4.10;;
485;SDS011;229;48.734;9.340;2023-03-20T10:40:43;4.43;;;4.13;;
485;SDS011;229;48.734;9.340;2023-03-20T10:43:15;3.65;;;3.45;;
485;SDS011;229;48.734;9.340;2023-03-20T10:45:44;5.43;;;5.13;;
485;SDS011;229;48.734;9.340;2023-03-20T10:48:14;5.70;;;5.40;;
485;SDS011;229;48.734;9.340;2023-03-20T10:50:43;4.95;;;4.65;;
485;SDS011;229;48.734;9.340;2023-03-20T10:53:16;4.38;;;4.00;;
485;SDS011;229;48.734;9.340;2023-03-20T10:55:46;4.80;;;4.50;;
485;SDS011;229;48.734;9.340;2023-03-20T10:58:15;4.10;;;3.90;;
485;SDS011;229;48.734;9.340;2023-03-20T11:00:43;4.10;;;3.90;;
485;SDS011;229;48.734;9.340;2023-03-20T11:03:15;4.32;;;3.42;;
485;SDS011;229;48.734;9.340;2023-03-20T11:05:44;3.47;;;3.30;;
485;SDS011;229;48.734;9.340;2023-03-20T11:08:12;3.88;;;3.67;;
485;SDS011;229;48.734;9.340;2023-03-20T11:10:41;4.10;;;3.90;;
485;SDS011;229;48.734;9.340;2023-03-20T11:13:21;4.65;;;3.60;;
485;SDS011;229;48.734;9.340;2023-03-20T11:16:16;6.13;;;3.75;;
485;SDS011;229;48.734;9.340;2023-03-20T11:18:44;3.53;;;3.33;;
485;SDS011;229;48.734;9.340;2023-03-20T11:21:14;3.53;;;3.33;;
485;SDS011;229;48.734;9.340;2023-03-20T11:23:42;3.85;;;3.65;;
485;SDS011;229;48.734;9.340;2023-03-20T11:26:11;3.60;;;3.40;;
485;SDS011;229;48.734;9.340;2023-03-20T11:28:41;3.55;;;3.35;;
485;SDS011;229;48.734;9.340;2023-03-20T11:31:16;4.78;;;4.47;;
485;SDS011;229;48.734;9.340;2023-03-20T11:33:44;4.80;;;4.15;;
485;SDS011;229;48.734;9.340;2023-03-20T11:36:18;4.35;;;4.10;;
485;SDS011;229;48.734;9.340;2023-03-20T11:38:46;4.30;;;4.00;;
485;SDS011;229;48.734;9.340;2023-03-20T11:41:20;4.43;;;4.13;;
485;SDS011;229;48.734;9.340;2023-03-20T11:43:49;4.07;;;3.88;;
485;SDS011;229;48.734;9.340;2023-03-20T11:46:17;4.10;;;3.90;;
485;SDS011;229;48.734;9.340;2023-03-20T11:48:45;5.80;;;4.90;;
485;SDS011;229;48.734;9.340;2023-03-20T11:51:13;8.13;;;4.78;;
485;SDS011;229;48.734;9.340;2023-03-20T11:53:56;4.82;;;4.53;;
485;SDS011;229;48.734;9.340;2023-03-20T11:56:25;6.43;;;4.70;;
485;SDS011;229;48.734;9.340;2023-03-20T11:58:54;5.80;;;4.60;;
485;SDS011;229;48.734;9.340;2023-03-20T12:01:22;5.15;;;4.82;;
485;SDS011;229;48.734;9.340;2023-03-20T12:03:50;5.00;;;4.70;;
485;SDS011;229;48.734;9.340;2023-03-20T12:06:20;4.65;;;4.35;;
485;SDS011;229;48.734;9.340;2023-03-20T12:08:51;4.43;;;4.13;;
485;SDS011;229;48.734;9.340;2023-03-20T12:11:23;6.80;;;4.60;;
485;SDS011;229;48.734;9.340;2023-03-20T12:13:52;5.97;;;5.68;;
485;SDS011;229;48.734;9.340;2023-03-20T12:16:24;7.13;;;5.35;;
485;SDS011;229;48.734;9.340;2023-03-20T12:18:53;5.10;;;4.85;;
485;SDS011;229;48.734;9.340;2023-03-20T12:21:21;6.10;;;5.80;;
485;SDS011;229;48.734;9.340;2023-03-20T12:23:50;6.78;;;5.50;;
485;SDS011;229;48.734;9.340;2023-03-20T12:26:19;5.57;;;5.30;;
485;SDS011;229;48.734;9.340;2023-03-20T12:28:49;7.43;;;5.82;;
485;SDS011;229;48.734;9.340;2023-03-20T12:31:19;7.53;;;5.70;;
485;SDS011;229;48.734;9.340;2023-03-20T12:33:49;6.40;;;6.05;;
485;SDS011;229;48.734;9.340;2023-03-20T12:36:21;7.72;;;6.60;;
485;SDS011;229;48.734;9.340;2023-03-20T12:38:50;6.60;;;6.20;;
485;SDS011;229;48.734;9.340;2023-03-20T12:41:19;7.25;;;6.65;;
485;SDS011;229;48.734;9.340;2023-03-20T12:43:54;7.97;;;5.72;;
485;SDS011;229;48.734;9.340;2023-03-20T12:46:24;8.35;;;6.55;;
485;SDS011;229;48.734;9.340;2023-03-20T12:48:56;7.25;;;6.88;;
485;SDS011;229;48.734;9.340;2023-03-20T12:51:28;7.18;;;6.78;;
485;SDS011;229;48.734;9.340;2023-03-20T12:54:00;7.30;;;6.90;;
485;SDS011;229;48.734;9.340;2023-03-20T12:56:34;10.90;;;7.95;;
485;SDS011;229;48.734;9.340;2023-03-20T12:59:13;6.55;;;6.15;;
485;SDS011;229;48.734;9.340;2023-03-20T13:01:44;7.40;;;6.45;;
485;SDS011;229;48.734;9.340;2023-03-20T13:04:17;6.28;;;5.93;;
485;SDS011;229;48.734;9.340;2023-03-20T13:06:50;9.57;;;6.10;;
485;SDS011;229;48.734;9.340;2023-03-20T13:12:00;7.10;;;6.70;;
485;SDS011;229;48.734;9.340;2023-03-20T13:14:33;9.57;;;6.32;;
485;SDS011;229;48.734;9.340;2023-03-20T13:17:03;7.50;;;6.45;;
485;SDS011;229;48.734;9.340;2023-03-20T13:19:34;7.60;;;6.40;;
485;SDS011;229;48.734;9.340;2023-03-20T13:22:03;7.38;;;6.30;;
485;SDS011;229;48.734;9.340;2023-03-20T13:24:34;6.22;;;5.90;;
485;SDS011;229;48.734;9.340;2023-03-20T13:27:06;7.00;;;6.60;;
485;SDS011;229;48.734;9.340;2023-03-20T13:29:37;6.97;;;5.78;;
485;SDS011;229;48.734;9.340;2023-03-20T13:32:10;5.80;;;5.50;;
485;SDS011;229;48.734;9.340;2023-03-20T13:34:46;8.30;;;6.22;;
485;SDS011;229;48.734;9.340;2023-03-20T13:37:18;6.35;;;5.90;;
485;SDS011;229;48.734;9.340;2023-03-20T13:39:47;6.80;;;5.15;;
485;SDS011;229;48.734;9.340;2023-03-20T13:42:16;6.35;;;5.90;;
485;SDS011;229;48.734;9.340;2023-03-20T13:44:45;7.03;;;5.03;;
485;SDS011;229;48.734;9.340;2023-03-20T13:47:14;9.18;;;5.40;;
485;SDS011;229;48.734;9.340;2023-03-20T13:49:44;7.90;;;5.40;;
485;SDS011;229;48.734;9.340;2023-03-20T13:52:14;5.70;;;5.28;;
485;SDS011;229;48.734;9.340;2023-03-20T13:54:51;5.32;;;5.03;;
485;SDS011;229;48.734;9.340;2023-03-20T13:57:25;5.35;;;5.07;;
485;SDS011;229;48.734;9.340;2023-03-20T13:59:56;4.85;;;4.55;;
485;SDS011;229;48.734;9.340;2023-03-20T14:05:11;6.90;;;4.82;;
485;SDS011;229;48.734;9.340;2023-03-20T14:07:42;5.55;;;5.25;;
485;SDS011;229;48.734;9.340;2023-03-20T14:12:56;5.97;;;5.60;;
485;SDS011;229;48.734;9.340;2023-03-20T14:15:25;7.20;;;6.40;;
485;SDS011;229;48.734;9.340;2023-03-20T14:17:53;5.78;;;5.50;;
485;SDS011;229;48.734;9.340;2023-03-20T14:20:22;6.68;;;5.07;;
485;SDS011;229;48.734;9.340;2023-03-20T14:22:54;6.50;;;5.70;;
485;SDS011;229;48.734;9.340;2023-03-20T14:25:22;10.85;;;5.85;;
485;SDS011;229;48.734;9.340;2023-03-20T14:27:54;8.02;;;6.10;;
485;SDS011;229;48.734;9.340;2023-03-20T14:30:41;6.13;;;5.78;;
485;SDS011;229;48.734;9.340;2023-03-20T14:33:22;6.00;;;5.70;;
485;SDS011;229;48.734;9.340;2023-03-20T14:35:51;9.90;;;6.15;;
485;SDS011;229;48.734;9.340;2023-03-20T14:38:37;5.97;;;5.65;;
485;SDS011;229;48.734;9.340;2023-03-20T14:41:08;6.90;;;6.40;;
485;SDS011;229;48.734;9.340;2023-03-20T14:43:40;6.90;;;6.50;;
485;SDS011;229;48.734;9.340;2023-03-20T14:46:14;7.38;;;6.20;;
485;SDS011;229;48.734;9.340;2023-03-20T14:48:43;6.22;;;5.80;;
485;SDS011;229;48.734;9.340;2023-03-20T14:51:20;11.73;;;6.20;;
485;SDS011;229;48.734;9.340;2023-03-20T14:53:50;7.53;;;6.20;;
485;SDS011;229;48.734;9.340;2023-03-20T14:56:24;5.85;;;5.55;;
485;SDS011;229;48.734;9.340;2023-03-20T14:58:54;6.07;;;5.80;;
485;SDS011;229;48.734;9.340;2023-03-20T15:01:23;8.38;;;6.10;;
485;SDS011;229;48.734;9.340;2023-03-20T15:03:51;6.28;;;5.93;;
485;SDS011;229;48.734;9.340;2023-03-20T15:06:20;8.52;;;6.55;;
485;SDS011;229;48.734;9.340;2023-03-20T15:08:49;7.30;;;6.22;;
485;SDS011;229;48.734;9.340;2023-03-20T15:11:18;6.47;;;6.07;;
485;SDS011;229;48.734;9.340;2023-03-20T15:13:46;5.93;;;5.63;;
485;SDS011;229;48.734;9.340;2023-03-20T15:16:15;6.72;;;6.32;;
485;SDS011;229;48.734;9.340;2023-03-20T15:18:43;6.40;;;6.00;;
485;SDS011;229;48.734;9.340;2023-03-20T15:21:11;8.95;;;6.40;;
485;SDS011;229;48.734;9.340;2023-03-20T15:23:40;7.10;;;6.00;;
485;SDS011;229;48.734;9.340;2023-03-20T15:26:07;6.22;;;5.50;;
485;SDS011;229;48.734;9.340;2023-03-20T15:28:36;6.43;;;6.05;;
485;SDS011;229;48.734;9.340;2023-03-20T15:31:04;6.90;;;6.47;;
485;SDS011;229;48.734;9.340;2023-03-20T15:33:32;9.77;;;6.18;;
485;SDS011;229;48.734;9.340;2023-03-20T15:36:07;5.57;;;5.28;;
485;SDS011;229;48.734;9.340;2023-03-20T15:38:35;9.18;;;5.65;;
485;SDS011;229;48.734;9.340;2023-03-20T15:41:03;6.05;;;5.22;;
485;SDS011;229;48.734;9.340;2023-03-20T15:43:30;7.45;;;6.60;;
485;SDS011;229;48.734;9.340;2023-03-20T15:46:00;6.03;;;5.07;;
485;SDS011;229;48.734;9.340;2023-03-20T15:48:29;6.88;;;5.80;;
485;SDS011;229;48.734;9.340;2023-03-20T15:50:57;7.40;;;5.70;;
485;SDS011;229;48.734;9.340;2023-03-20T15:53:27;8.15;;;6.05;;
485;SDS011;229;48.734;9.340;2023-03-20T15:55:57;10.30;;;6.30;;
485;SDS011;229;48.734;9.340;2023-03-20T15:58:27;9.35;;;6.20;;
485;SDS011;229;48.734;9.340;2023-03-20T16:00:56;5.57;;;5.28;;
485;SDS011;229;48.734;9.340;2023-03-20T16:03:25;5.30;;;5.10;;
485;SDS011;229;48.734;9.340;2023-03-20T16:05:53;4.70;;;4.40;;
485;SDS011;229;48.734;9.340;2023-03-20T16:08:21;5.05;;;4.75;;
485;SDS011;229;48.734;9.340;2023-03-20T16:10:53;15.95;;;5.30;;
485;SDS011;229;48.734;9.340;2023-03-20T16:13:21;5.60;;;4.95;;
485;SDS011;229;48.734;9.340;2023-03-20T16:15:48;5.80;;;5.18;;
485;SDS011;229;48.734;9.340;2023-03-20T16:18:16;5.25;;;4.95;;